Time;durP1;ratioP1;P1;durP2;ratioP2;P2;SDS_P1;SDS_P2;PMS_P1;PMS_P2;Temp;Humidity;BMP_temperature;BMP_pressure;BME280_temperature;BME280_humidity;BME280_pressure;Samples;Min_cycle;Max_cycle;Signal;HPM_P1;HPM_P2
2021/12/23 00:01:59;;;;;;;25.90;11.50;;;;;;;-3.10;93.43;100423.11;102230;1316;66157;-74
2021/12/23 00:04:48;;;;;;;26.40;12.20;;;;;;;-3.11;93.35;100421.20;102308;1317;71753;-73
2021/12/23 00:07:46;;;;;;;27.50;12.90;;;;;;;-3.13;93.31;100419.14;102146;1313;59770;-73
2021/12/23 00:10:40;;;;;;;28.00;12.00;;;;;;;-3.13;93.57;100415.51;101938;1313;60566;-75
2021/12/23 00:13:36;;;;;;;28.30;12.90;;;;;;;-3.12;93.54;100416.01;101990;1314;73266;-73
2021/12/23 00:16:40;;;;;;;22.50;10.10;;;;;;;-3.18;93.63;100407.76;101958;1314;67122;-74
2021/12/23 00:25:40;;;;;;;22.80;10.50;;;;;;;-3.15;93.92;100405.30;102652;1311;59716;-73
2021/12/23 00:28:35;;;;;;;25.00;12.40;;;;;;;-3.13;93.79;100399.01;101753;1317;1003201;-73
2021/12/23 00:31:36;;;;;;;22.30;10.10;;;;;;;-3.13;93.90;100395.20;102371;1313;68132;-73
2021/12/23 00:34:33;;;;;;;33.30;14.50;;;;;;;-3.14;93.84;100388.61;102227;1314;71609;-72
2021/12/23 00:37:41;;;;;;;31.30;14.30;;;;;;;-3.11;94.10;100384.22;102038;1314;59747;-73
2021/12/23 00:40:35;;;;;;;30.40;13.30;;;;;;;-3.08;93.94;100381.41;102169;1310;59728;-73
2021/12/23 00:43:32;;;;;;;24.40;11.00;;;;;;;-3.06;93.79;100377.20;102109;1317;71106;-74
2021/12/23 00:46:23;;;;;;;28.10;11.90;;;;;;;-3.02;93.78;100371.06;102474;1313;65646;-74
2021/12/23 00:49:13;;;;;;;25.00;11.90;;;;;;;-3.02;93.86;100366.38;102173;1311;71754;-73
2021/12/23 00:52:05;;;;;;;22.80;10.50;;;;;;;-3.03;93.72;100358.05;102557;1313;59689;-73
2021/12/23 00:54:57;;;;;;;32.50;14.10;;;;;;;-3.03;93.96;100353.71;102206;1310;59610;-73
2021/12/23 00:57:45;;;;;;;28.50;12.00;;;;;;;-3.03;93.77;100347.65;102484;1310;73266;-72
2021/12/23 01:00:37;;;;;;;30.20;13.00;;;;;;;-3.03;93.78;100338.96;101965;1316;68406;-72
2021/12/23 01:03:37;;;;;;;27.80;13.30;;;;;;;-3.03;93.81;100336.52;102147;1314;73048;-73
2021/12/23 01:06:29;;;;;;;26.70;11.10;;;;;;;-3.04;93.83;100335.67;102544;1316;59779;-73
2021/12/23 01:09:44;;;;;;;31.00;13.40;;;;;;;-3.05;93.99;100332.57;101434;1310;1003226;-74
2021/12/23 01:12:45;;;;;;;27.30;12.80;;;;;;;-3.04;93.80;100326.83;102208;1319;72497;-74
2021/12/23 01:18:29;;;;;;;25.60;10.50;;;;;;;-3.00;93.83;100326.58;102203;1317;73278;-75
2021/12/23 01:21:27;;;;;;;25.30;11.10;;;;;;;-2.99;93.47;100324.65;102367;1314;59695;-76
2021/12/23 01:24:30;;;;;;;23.10;9.60;;;;;;;-3.00;93.72;100322.94;102380;1317;60919;-75
2021/12/23 01:27:24;;;;;;;29.60;11.70;;;;;;;-3.01;93.59;100321.04;102081;1310;72585;-75
2021/12/23 01:30:31;;;;;;;27.80;12.70;;;;;;;-3.01;93.44;100315.48;101845;1317;1002950;-75
2021/12/23 01:33:23;;;;;;;25.40;11.40;;;;;;;-3.02;93.38;100308.38;102132;1317;1003181;-72
2021/12/23 01:36:15;;;;;;;27.90;12.00;;;;;;;-3.00;93.39;100308.00;102575;1317;59761;-73
2021/12/23 01:39:06;;;;;;;29.10;12.10;;;;;;;-2.98;93.31;100309.88;102924;1310;59582;-73
2021/12/23 01:42:12;;;;;;;25.00;10.50;;;;;;;-3.00;93.13;100301.56;103253;1316;73380;-73
2021/12/23 01:45:01;;;;;;;28.60;12.90;;;;;;;-3.01;93.04;100296.55;102822;1316;68105;-73
2021/12/23 01:47:54;;;;;;;30.40;13.70;;;;;;;-2.99;93.15;100293.73;103058;1313;73254;-74
2021/12/23 01:50:46;;;;;;;31.10;13.60;;;;;;;-2.98;92.94;100290.25;102821;1311;59473;-74
2021/12/23 01:53:38;;;;;;;22.80;10.20;;;;;;;-2.97;92.83;100285.54;102260;1318;1002996;-73
2021/12/23 01:56:59;;;;;;;20.20;9.60;;;;;;;-2.94;92.65;100282.71;103196;1316;73229;-74
2021/12/23 01:59:54;;;;;;;21.90;10.40;;;;;;;-2.94;92.26;100283.56;102989;1317;67110;-74
2021/12/23 02:03:01;;;;;;;27.20;11.60;;;;;;;-2.95;92.28;100282.37;102873;1314;71741;-75
2021/12/23 02:05:55;;;;;;;28.40;13.60;;;;;;;-2.95;92.33;100277.70;103171;1317;59762;-73
2021/12/23 02:08:58;;;;;;;29.60;12.80;;;;;;;-2.94;92.13;100269.69;103705;1314;59567;-74
2021/12/23 02:11:55;;;;;;;23.60;11.40;;;;;;;-2.94;91.65;100259.27;102949;1310;72351;-74
2021/12/23 02:14:49;;;;;;;25.90;11.00;;;;;;;-2.92;91.91;100252.98;102797;1314;68123;-74
2021/12/23 02:17:42;;;;;;;21.90;10.90;;;;;;;-2.91;91.90;100247.58;102518;1319;73041;-73
2021/12/23 02:20:44;;;;;;;27.20;11.00;;;;;;;-2.91;91.70;100236.13;102612;1316;59723;-74
2021/12/23 02:23:37;;;;;;;21.10;9.40;;;;;;;-2.93;91.55;100234.77;102483;1316;60530;-73
2021/12/23 02:26:39;;;;;;;24.70;10.00;;;;;;;-2.95;91.46;100229.59;102387;1314;73863;-73
2021/12/23 02:29:40;;;;;;;24.70;12.30;;;;;;;-2.98;91.30;100227.91;102250;1314;66949;-74
2021/12/23 02:32:34;;;;;;;25.10;11.40;;;;;;;-2.98;91.52;100222.20;102298;1317;70381;-74
2021/12/23 02:35:41;;;;;;;23.60;10.20;;;;;;;-2.98;91.70;100219.42;101543;1317;1003472;-74
2021/12/23 02:38:39;;;;;;;27.70;13.30;;;;;;;-3.00;91.45;100219.27;102884;1313;60570;-74
2021/12/23 02:41:43;;;;;;;30.60;13.30;;;;;;;-3.02;91.41;100213.94;102152;1319;72474;-73
2021/12/23 02:44:40;;;;;;;31.80;13.80;;;;;;;-3.02;91.33;100200.21;102325;1316;68637;-74
2021/12/23 02:47:38;;;;;;;23.00;9.20;;;;;;;-3.02;91.37;100197.96;102382;1316;73304;-74
2021/12/23 02:50:33;;;;;;;26.80;12.00;;;;;;;-3.01;91.34;100201.95;102564;1313;60188;-73
2021/12/23 02:53:22;;;;;;;22.70;10.60;;;;;;;-3.02;91.34;100196.22;102239;1313;61212;-73
2021/12/23 02:56:15;;;;;;;26.50;12.30;;;;;;;-3.04;91.20;100193.67;102139;1316;73556;-73
2021/12/23 02:59:12;;;;;;;23.20;10.30;;;;;;;-3.06;91.22;100190.06;102654;1315;67946;-75
2021/12/23 03:02:14;;;;;;;25.70;11.80;;;;;;;-3.06;91.06;100183.98;102422;1310;70941;-74
2021/12/23 03:05:40;;;;;;;22.70;9.50;;;;;;;-3.04;90.80;100185.17;102616;1313;59679;-74
2021/12/23 03:09:10;;;;;;;26.40;11.80;;;;;;;-3.04;90.69;100175.77;102326;1317;59851;-74
2021/12/23 03:12:17;;;;;;;22.70;10.70;;;;;;;-3.04;90.70;100169.36;102775;1313;72571;-74
2021/12/23 03:15:24;;;;;;;26.60;11.00;;;;;;;-3.06;90.62;100162.80;102570;1318;66882;-76
2021/12/23 03:18:20;;;;;;;29.80;14.60;;;;;;;-3.08;90.47;100156.77;101934;1317;71731;-74
2021/12/23 03:21:16;;;;;;;30.40;14.00;;;;;;;-3.09;90.30;100146.36;102381;1313;59852;-74
2021/12/23 03:24:22;;;;;;;26.10;12.40;;;;;;;-3.07;90.29;100134.88;102595;1313;59706;-74
2021/12/23 03:27:29;;;;;;;24.10;10.40;;;;;;;-3.10;90.38;100124.50;102440;1317;72248;-74
2021/12/23 03:30:23;;;;;;;24.90;10.90;;;;;;;-3.09;90.16;100121.55;102334;1310;67987;-74
2021/12/23 03:33:16;;;;;;;24.20;11.30;;;;;;;-3.13;89.91;100112.06;102309;1316;72941;-74
2021/12/23 03:36:15;;;;;;;28.90;13.80;;;;;;;-3.16;90.03;100114.73;102180;1310;59799;-74
2021/12/23 03:39:11;;;;;;;30.10;13.00;;;;;;;-3.17;90.08;100111.11;102323;1317;60754;-74
2021/12/23 03:42:34;;;;;;;21.60;9.20;;;;;;;-3.19;89.96;100103.19;102246;1316;72412;-74
2021/12/23 03:45:31;;;;;;;25.10;11.70;;;;;;;-3.19;89.53;100103.17;102209;1313;66897;-74
2021/12/23 03:48:22;;;;;;;27.90;12.80;;;;;;;-3.23;89.76;100100.64;102262;1316;71642;-74
2021/12/23 03:51:11;;;;;;;25.00;10.80;;;;;;;-3.27;89.65;100088.40;101408;1316;1003835;-74
2021/12/23 03:54:06;;;;;;;31.00;13.80;;;;;;;-3.29;89.55;100086.03;102457;1316;59715;-73
2021/12/23 03:57:01;;;;;;;20.90;9.40;;;;;;;-3.30;89.78;100081.02;102394;1319;72205;-74
2021/12/23 04:00:09;;;;;;;23.20;10.40;;;;;;;-3.36;89.43;100070.36;102205;1310;68264;-74
2021/12/23 04:03:18;;;;;;;21.00;9.30;;;;;;;-3.36;89.46;100068.63;102064;1317;71664;-74
2021/12/23 04:06:19;;;;;;;22.10;8.90;;;;;;;-3.36;89.92;100067.93;102498;1311;59711;-74
2021/12/23 04:09:12;;;;;;;25.50;10.20;;;;;;;-3.38;89.27;100068.67;102233;1317;59688;-74
2021/12/23 04:12:08;;;;;;;24.40;10.90;;;;;;;-3.42;88.87;100066.16;101915;1316;72350;-74
2021/12/23 04:15:04;;;;;;;24.10;9.80;;;;;;;-3.45;89.13;100069.52;102597;1313;68268;-73
2021/12/23 04:18:12;;;;;;;22.20;10.40;;;;;;;-3.47;89.29;100067.64;102466;1317;70664;-73
2021/12/23 04:21:20;;;;;;;28.90;12.50;;;;;;;-3.50;89.35;100057.11;102224;1317;59812;-73
2021/12/23 04:24:16;;;;;;;29.60;13.20;;;;;;;-3.48;89.26;100058.46;102364;1310;60624;-73
2021/12/23 04:27:15;;;;;;;22.30;10.70;;;;;;;-3.49;89.03;100047.73;102449;1316;73524;-73
2021/12/23 04:30:09;;;;;;;26.90;12.60;;;;;;;-3.49;88.87;100046.85;102013;1316;67669;-73
2021/12/23 04:33:05;;;;;;;20.70;9.40;;;;;;;-3.49;89.06;100042.88;102097;1318;73138;-73
2021/12/23 04:36:01;;;;;;;26.30;11.50;;;;;;;-3.51;88.89;100041.54;102162;1318;59732;-73
2021/12/23 04:39:02;;;;;;;31.90;13.50;;;;;;;-3.50;88.75;100039.42;102048;1317;59698;-73
2021/12/23 04:42:07;;;;;;;26.80;11.80;;;;;;;-3.51;88.65;100040.47;102450;1319;73188;-73
2021/12/23 04:45:35;;;;;;;27.90;10.80;;;;;;;-3.51;88.63;100038.40;101913;1316;66904;-73
2021/12/23 04:48:48;;;;;;;23.00;10.00;;;;;;;-3.50;88.71;100035.95;102248;1318;71962;-73
2021/12/23 04:51:42;;;;;;;29.70;12.80;;;;;;;-3.54;88.45;100029.43;102318;1314;59710;-72
2021/12/23 04:54:34;;;;;;;29.30;12.20;;;;;;;-3.52;88.49;100036.34;102128;1317;60187;-71
2021/12/23 04:57:24;;;;;;;29.30;12.20;;;;;;;-3.52;88.52;100033.20;102126;1316;71949;-71
2021/12/23 05:00:21;;;;;;;30.90;13.10;;;;;;;-3.52;88.53;100025.23;102113;1317;66650;-71
2021/12/23 05:03:25;;;;;;;22.80;9.10;;;;;;;-3.53;88.56;100020.05;102128;1316;72938;-74
2021/12/23 05:06:20;;;;;;;23.50;9.60;;;;;;;-3.54;88.26;100014.35;103319;1318;59786;-75
2021/12/23 05:09:24;;;;;;;24.10;11.10;;;;;;;-3.55;88.53;100010.56;104153;1318;59843;-76
2021/12/23 05:12:13;;;;;;;28.60;11.80;;;;;;;-3.54;88.29;100006.05;102505;1311;71860;-74
2021/12/23 05:15:07;;;;;;;33.90;15.00;;;;;;;-3.50;88.36;100001.95;102059;1310;65747;-75
2021/12/23 05:17:59;;;;;;;27.70;12.90;;;;;;;-3.50;87.77;99995.88;102547;1316;73588;-74
2021/12/23 05:21:02;;;;;;;30.20;14.10;;;;;;;-3.50;87.71;99993.28;102624;1316;59783;-74
2021/12/23 05:23:58;;;;;;;29.80;12.90;;;;;;;-3.51;87.70;99987.40;102270;1311;59747;-74
2021/12/23 05:27:00;;;;;;;27.50;10.90;;;;;;;-3.53;87.67;99982.08;102389;1316;73542;-74
2021/12/23 05:30:06;;;;;;;;;;;;;;;;;;;;;
2021/12/23 05:33:32;;;;;;;25.70;11.30;;;;;;;-3.54;86.97;99973.42;103027;1314;73077;-75
2021/12/23 05:36:26;;;;;;;27.40;12.40;;;;;;;-3.51;87.17;99970.23;102051;1317;59811;-74
2021/12/23 05:40:19;;;;;;;26.30;11.40;;;;;;;-3.51;87.01;99961.38;102576;1313;60305;-75
2021/12/23 05:43:40;;;;;;;27.20;11.00;;;;;;;-3.52;87.05;99956.90;102696;1313;72113;-75
2021/12/23 05:46:38;;;;;;;25.80;10.90;;;;;;;-3.53;86.97;99949.98;102597;1316;65314;-75
2021/12/23 05:49:40;;;;;;;32.10;13.90;;;;;;;-3.49;87.11;99950.07;102564;1316;73111;-74
2021/12/23 05:52:34;;;;;;;32.50;13.10;;;;;;;-3.48;87.00;99946.55;101993;1317;59735;-74
2021/12/23 05:55:24;;;;;;;28.50;12.00;;;;;;;-3.48;86.67;99939.45;102333;1318;61704;-74
2021/12/23 05:58:17;;;;;;;23.80;8.40;;;;;;;-3.47;86.92;99939.27;102483;1317;73429;-73
2021/12/23 06:01:18;;;;;;;20.40;9.20;;;;;;;-3.48;86.68;99931.48;102846;1316;394668;-74
2021/12/23 06:04:14;;;;;;;26.80;11.40;;;;;;;-3.48;86.61;99923.33;102094;1318;72019;-73
2021/12/23 06:07:12;;;;;;;29.50;12.20;;;;;;;-3.48;86.44;99921.61;102325;1318;59641;-73
2021/12/23 06:10:05;;;;;;;29.80;12.20;;;;;;;-3.47;86.51;99919.48;102411;1313;60699;-73
2021/12/23 06:13:05;;;;;;;27.00;12.20;;;;;;;-3.46;86.20;99916.00;103315;1317;73248;-73
2021/12/23 06:15:54;;;;;;;27.60;10.80;;;;;;;-3.48;86.02;99915.69;102947;1316;66842;-75
2021/12/23 06:18:46;;;;;;;24.10;10.60;;;;;;;-3.48;86.18;99918.30;102907;1316;72992;-74
2021/12/23 06:21:34;;;;;;;34.20;14.40;;;;;;;-3.47;86.14;99924.52;103018;1316;59839;-75
2021/12/23 06:24:45;;;;;;;31.60;13.40;;;;;;;-3.45;86.00;99924.29;102701;1319;59910;-75
2021/12/23 06:27:34;;;;;;;31.00;12.70;;;;;;;-3.44;85.83;99914.90;102874;1319;73436;-75
2021/12/23 06:30:28;;;;;;;27.40;12.10;;;;;;;-3.44;86.10;99909.02;102534;1316;68340;-74
2021/12/23 06:33:17;;;;;;;28.40;12.10;;;;;;;-3.46;85.76;99902.45;102680;1316;73185;-74
2021/12/23 06:36:13;;;;;;;28.00;12.50;;;;;;;-3.46;85.54;99901.61;102664;1317;60189;-74
2021/12/23 06:39:05;;;;;;;30.40;12.50;;;;;;;-3.51;85.34;99896.50;102210;1317;60680;-73
2021/12/23 06:41:56;;;;;;;34.80;12.70;;;;;;;-3.49;85.50;99896.30;102767;1317;73318;-73
2021/12/23 06:44:51;;;;;;;23.20;10.60;;;;;;;-3.49;85.54;99895.40;102547;1316;68607;-74
2021/12/23 06:47:44;;;;;;;29.80;13.60;;;;;;;-3.52;85.41;99891.66;102979;1314;72852;-75
2021/12/23 06:50:32;;;;;;;29.70;12.60;;;;;;;-3.54;85.28;99889.63;102560;1317;59828;-75
2021/12/23 06:53:30;;;;;;;33.90;13.70;;;;;;;-3.54;85.54;99884.78;103032;1317;59615;-75
2021/12/23 06:56:19;;;;;;;31.50;13.30;;;;;;;-3.55;85.27;99881.34;102779;1316;73710;-75
2021/12/23 06:59:08;;;;;;;29.70;12.20;;;;;;;-3.54;84.99;99878.73;102617;1314;68246;-74
2021/12/23 07:01:58;;;;;;;26.80;11.30;;;;;;;-3.56;84.84;99877.87;103268;1314;73092;-74
2021/12/23 07:04:50;;;;;;;32.40;14.10;;;;;;;-3.56;84.97;99874.77;102896;1316;59739;-79
2021/12/23 07:07:56;;;;;;;34.20;14.20;;;;;;;-3.53;85.54;99875.73;102601;1317;61262;-80
2021/12/23 07:11:06;;;;;;;26.30;12.00;;;;;;;-3.49;85.18;99867.83;102465;1317;71260;-79
2021/12/23 07:14:00;;;;;;;32.00;14.60;;;;;;;-3.41;85.63;99869.40;102251;1316;65724;-80
2021/12/23 07:16:48;;;;;;;34.10;15.00;;;;;;;-3.37;85.10;99869.98;102624;1317;71180;-72
2021/12/23 07:19:36;;;;;;;28.80;13.30;;;;;;;-3.36;84.34;99866.85;102048;1317;1002944;-74
2021/12/23 07:22:29;;;;;;;28.90;12.90;;;;;;;-3.39;83.92;99867.10;102287;1316;1002826;-73
2021/12/23 07:25:19;;;;;;;29.40;12.00;;;;;;;-3.40;83.98;99865.38;102600;1317;74086;-74
2021/12/23 07:28:08;;;;;;;30.00;12.90;;;;;;;-3.39;84.10;99863.45;102375;1314;66941;-73
2021/12/23 07:30:55;;;;;;;30.00;12.80;;;;;;;-3.37;84.22;99867.39;101904;1317;1002927;-73
2021/12/23 07:33:42;;;;;;;29.40;12.30;;;;;;;-3.35;83.91;99868.20;101852;1318;1002944;-72
2021/12/23 07:36:30;;;;;;;37.30;15.00;;;;;;;-3.33;84.09;99867.13;102700;1316;61142;-72
2021/12/23 07:39:18;;;;;;;33.40;14.00;;;;;;;-3.33;84.39;99865.72;102559;1317;73322;-73
2021/12/23 07:42:27;;;;;;;34.90;15.70;;;;;;;-3.33;84.47;99866.77;102419;1316;67937;-72
2021/12/23 07:45:15;;;;;;;40.60;18.20;;;;;;;-3.33;84.46;99861.57;102362;1317;72960;-74
2021/12/23 07:48:17;;;;;;;36.80;16.30;;;;;;;-3.32;84.36;99859.98;101754;1310;1002634;-73
2021/12/23 07:51:08;;;;;;;39.60;17.20;;;;;;;-3.33;84.44;99858.63;102429;1311;60733;-73
2021/12/23 07:53:57;;;;;;;37.40;15.80;;;;;;;-3.34;84.33;99859.00;102331;1318;73795;-71
2021/12/23 07:56:45;;;;;;;33.70;16.50;;;;;;;-3.34;84.44;99860.19;102304;1313;68097;-73
2021/12/23 07:59:35;;;;;;;33.80;14.40;;;;;;;-3.33;84.44;99858.09;102623;1316;73408;-73
2021/12/23 08:02:23;;;;;;;37.70;17.20;;;;;;;-3.34;84.42;99851.20;102460;1317;59803;-72
2021/12/23 08:05:11;;;;;;;38.50;15.50;;;;;;;-3.30;84.39;99852.13;102556;1317;60542;-72
2021/12/23 08:08:01;;;;;;;31.60;14.40;;;;;;;-3.27;84.19;99848.23;101879;1310;1002989;-74
2021/12/23 08:10:54;;;;;;;28.60;11.80;;;;;;;-3.24;83.94;99841.05;102603;1314;68360;-72
2021/12/23 08:13:41;;;;;;;25.10;12.60;;;;;;;-3.23;83.80;99832.52;101589;1317;1003351;-71
2021/12/23 08:16:32;;;;;;;31.10;14.40;;;;;;;-3.21;83.57;99827.95;101969;1317;1003560;-71
2021/12/23 08:19:20;;;;;;;32.00;14.40;;;;;;;-3.19;83.28;99825.48;102304;1315;61108;-73
2021/12/23 08:22:11;;;;;;;30.70;14.90;;;;;;;-3.16;83.21;99821.23;102687;1313;73586;-73
2021/12/23 08:25:00;;;;;;;32.10;13.80;;;;;;;-3.11;83.17;99814.17;102329;1314;68338;-72
2021/12/23 08:27:48;;;;;;;31.80;13.50;;;;;;;-3.10;83.13;99807.38;101633;1314;1002681;-74
2021/12/23 08:30:36;;;;;;;37.80;15.20;;;;;;;-3.09;82.83;99799.72;101461;1313;1003206;-72
2021/12/23 08:33:25;;;;;;;38.90;16.70;;;;;;;-3.05;82.90;99796.31;102484;1314;59669;-72
2021/12/23 08:36:14;;;;;;;33.60;14.30;;;;;;;-2.98;82.63;99791.97;102661;1316;73481;-73
2021/12/23 08:39:03;;;;;;;27.90;12.80;;;;;;;-2.91;82.33;99792.12;101465;1314;1003767;-72
2021/12/23 08:41:51;;;;;;;34.60;15.50;;;;;;;-2.89;81.98;99786.86;102425;1317;73098;-74
2021/12/23 08:44:40;;;;;;;29.70;13.10;;;;;;;-2.85;81.80;99787.45;102081;1318;59784;-72
2021/12/23 08:47:30;;;;;;;29.90;13.80;;;;;;;-2.81;81.63;99783.70;102269;1316;61673;-73
2021/12/23 08:50:26;;;;;;;36.30;15.10;;;;;;;-2.81;80.93;99776.21;102868;1317;72649;-73
2021/12/23 08:53:14;;;;;;;40.20;16.50;;;;;;;-2.76;80.91;99779.39;102741;1316;68270;-75
2021/12/23 08:56:05;;;;;;;35.20;15.30;;;;;;;-2.71;80.82;99772.48;102486;1317;73323;-74
2021/12/23 08:58:54;;;;;;;34.50;14.40;;;;;;;-2.64;80.38;99766.40;102030;1316;60226;-73
2021/12/23 09:01:56;;;;;;;28.80;12.30;;;;;;;-2.56;80.50;99769.11;102576;1310;59794;-74
2021/12/23 09:04:45;;;;;;;30.60;13.50;;;;;;;-2.50;80.09;99759.20;102122;1313;71130;-73
2021/12/23 09:07:33;;;;;;;35.90;16.00;;;;;;;-2.46;79.90;99754.58;102609;1309;68896;-73
2021/12/23 09:10:24;;;;;;;41.70;17.70;;;;;;;-2.43;79.68;99749.27;102918;1311;73128;-75
2021/12/23 09:13:12;;;;;;;33.60;14.00;;;;;;;-2.38;79.88;99737.48;102372;1313;59780;-73
2021/12/23 09:16:01;;;;;;;29.60;13.60;;;;;;;-2.34;79.53;99732.86;102316;1313;59725;-73
2021/12/23 09:18:51;;;;;;;34.90;15.40;;;;;;;-2.31;79.37;99730.51;102538;1317;73544;-73
2021/12/23 09:21:39;;;;;;;33.30;14.60;;;;;;;-2.30;78.97;99732.55;102506;1317;68594;-74
2021/12/23 09:24:28;;;;;;;36.10;17.10;;;;;;;-2.25;79.26;99728.05;102507;1317;71649;-74
2021/12/23 09:27:35;;;;;;;33.10;13.90;;;;;;;-2.17;79.16;99726.95;102464;1311;59802;-74
2021/12/23 09:33:35;;;;;;;34.10;15.20;;;;;;;-2.01;78.39;99725.06;102804;1313;70813;-72
2021/12/23 09:36:23;;;;;;;29.80;13.90;;;;;;;-1.93;78.56;99723.60;101429;1316;1003538;-72
2021/12/23 09:39:27;;;;;;;30.50;13.90;;;;;;;-1.87;78.17;99720.81;102397;1310;71397;-75
2021/12/23 09:42:15;;;;;;;29.10;13.50;;;;;;;-1.82;78.19;99714.38;102665;1314;59733;-73
2021/12/23 09:45:10;;;;;;;32.60;15.90;;;;;;;-1.76;77.94;99709.16;102627;1316;59676;-73
2021/12/23 09:48:02;;;;;;;36.90;16.50;;;;;;;-1.75;77.61;99699.35;102411;1317;73132;-73
2021/12/23 09:50:50;;;;;;;30.90;13.60;;;;;;;-1.73;77.68;99695.48;102373;1313;68058;-73
2021/12/23 09:53:42;;;;;;;31.40;14.50;;;;;;;-1.73;77.85;99696.00;102845;1310;71589;-73
2021/12/23 09:56:32;;;;;;;30.30;15.20;;;;;;;-1.71;77.88;99691.23;102543;1317;59761;-73
2021/12/23 09:59:26;;;;;;;30.90;14.10;;;;;;;-1.66;77.95;99685.16;101752;1316;1003754;-74
2021/12/23 10:02:15;;;;;;;33.40;15.30;;;;;;;-1.64;77.31;99677.27;102999;1314;72205;-73
2021/12/23 10:05:05;;;;;;;37.40;17.40;;;;;;;-1.61;76.99;99670.56;102466;1310;66962;-72
2021/12/23 10:07:55;;;;;;;33.60;15.80;;;;;;;-1.54;77.29;99668.76;102438;1316;73080;-73
2021/12/23 10:10:55;;;;;;;31.90;15.10;;;;;;;-1.50;77.18;99660.60;101872;1317;1003415;-73
2021/12/23 10:38:59;;;;;;;29.00;13.10;;;;;;;-1.30;74.22;99584.00;102355;1314;71507;-74
2021/12/23 10:41:48;;;;;;;24.60;11.40;;;;;;;-1.30;73.56;99580.37;102175;1317;59913;-74
2021/12/23 10:44:39;;;;;;;25.50;12.10;;;;;;;-1.31;73.52;99578.15;102237;1316;60226;-73
2021/12/23 10:50:49;;;;;;;26.90;12.20;;;;;;;-1.28;73.46;99561.32;102425;1316;66235;-74
2021/12/23 10:53:50;;;;;;;23.50;10.80;;;;;;;-1.26;73.17;99558.96;102248;1313;71796;-74
2021/12/23 10:59:52;;;;;;;26.90;11.80;;;;;;;-1.20;73.04;99554.74;101491;1317;1003938;-74
2021/12/23 11:03:19;;;;;;;26.60;11.30;;;;;;;-1.22;71.71;99550.47;102531;1313;72098;-75
2021/12/23 11:09:32;;;;;;;25.30;13.20;;;;;;;-1.35;71.92;99529.19;102131;1314;1002404;-74
2021/12/23 11:29:25;;;;;;;27.90;13.10;;;;;;;-1.42;72.10;99511.18;102018;1310;1003212;-72
2021/12/23 11:35:32;;;;;;;22.40;10.60;;;;;;;-1.50;72.68;99505.19;102661;1310;59676;-72
2021/12/23 11:44:15;;;;;;;28.50;13.50;;;;;;;-1.63;73.88;99485.32;102840;1317;59695;-70
2021/12/23 11:47:14;;;;;;;24.40;11.20;;;;;;;-1.63;73.75;99480.09;101985;1310;1003786;-71
2021/12/23 11:50:04;;;;;;;27.60;13.40;;;;;;;-1.66;73.83;99475.54;102548;1311;73384;-70
2021/12/23 11:52:53;;;;;;;24.90;12.20;;;;;;;-1.71;74.14;99470.64;102949;1317;66929;-71
2021/12/23 11:55:42;;;;;;;29.10;13.10;;;;;;;-1.75;74.41;99463.50;102585;1318;71336;-71
2021/12/23 11:58:31;;;;;;;36.20;15.20;;;;;;;-1.80;74.72;99459.16;102162;1313;1003556;-72
2021/12/23 12:01:28;;;;;;;37.00;16.40;;;;;;;-1.79;74.91;99455.30;102702;1314;59574;-72
2021/12/23 12:04:30;;;;;;;30.20;14.90;;;;;;;-1.76;75.21;99450.84;102855;1310;71893;-72
2021/12/23 12:07:24;;;;;;;33.20;15.90;;;;;;;-1.70;76.96;99452.70;102377;1310;66867;-71
2021/12/23 12:10:23;;;;;;;32.90;14.70;;;;;;;-1.68;75.49;99444.64;102555;1313;71890;-70
2021/12/23 12:13:16;;;;;;;26.50;10.40;;;;;;;-1.73;75.31;99442.02;102225;1314;59843;-71
2021/12/23 12:16:29;;;;;;;29.20;14.10;;;;;;;-1.80;75.41;99437.24;102835;1310;59577;-71
2021/12/23 12:19:53;;;;;;;32.30;14.30;;;;;;;-1.86;75.81;99435.73;102367;1313;73404;-70
2021/12/23 12:23:06;;;;;;;34.30;16.70;;;;;;;-1.93;76.02;99424.86;102526;1314;65994;-70
2021/12/23 12:26:29;;;;;;;31.80;14.20;;;;;;;-1.99;76.54;99420.02;102858;1313;71995;-70
2021/12/23 12:29:24;;;;;;;28.60;14.00;;;;;;;-2.02;76.70;99414.75;102987;1310;60368;-71
2021/12/23 12:32:35;;;;;;;34.10;15.90;;;;;;;-2.05;76.82;99409.48;102146;1317;59651;-70
2021/12/23 12:35:26;;;;;;;34.50;14.40;;;;;;;-2.07;77.11;99408.46;102558;1316;73424;-71
2021/12/23 12:38:24;;;;;;;32.50;13.90;;;;;;;-2.07;77.24;99405.19;101688;1317;1015657;-72
2021/12/23 12:41:36;;;;;;;37.10;17.40;;;;;;;-2.12;77.36;99399.98;102507;1310;72741;-71
2021/12/23 12:44:44;;;;;;;36.70;15.80;;;;;;;-2.10;77.66;99394.34;102399;1314;59750;-71
2021/12/23 12:47:37;;;;;;;40.50;17.40;;;;;;;-2.13;77.10;99389.23;102443;1316;59696;-72
2021/12/23 12:50:32;;;;;;;34.30;16.20;;;;;;;-2.10;77.51;99387.55;102450;1313;73415;-72
2021/12/23 12:53:27;;;;;;;31.60;14.40;;;;;;;-2.09;77.66;99383.89;101652;1313;1003034;-72
2021/12/23 12:56:22;;;;;;;38.50;16.70;;;;;;;-2.09;77.62;99371.88;102669;1311;73132;-71
2021/12/23 12:59:12;;;;;;;35.90;16.30;;;;;;;-2.11;77.34;99369.52;102274;1313;59861;-71
2021/12/23 13:02:32;;;;;;;35.50;16.90;;;;;;;-2.12;77.69;99361.05;102897;1314;59717;-70
2021/12/23 13:05:32;;;;;;;35.20;15.90;;;;;;;-2.13;77.56;99356.75;102582;1313;73690;-71
2021/12/23 13:08:32;;;;;;;34.40;16.00;;;;;;;-2.16;77.79;99349.55;101512;1316;1003189;-71
2021/12/23 13:11:36;;;;;;;36.80;17.00;;;;;;;-2.16;77.97;99342.92;102012;1314;1003189;-71
2021/12/23 13:15:08;;;;;;;39.20;17.60;;;;;;;-2.20;77.79;99336.30;102660;1313;59818;-72
2021/12/23 13:18:19;;;;;;;38.70;17.10;;;;;;;-2.27;78.09;99329.27;102687;1311;59731;-71
2021/12/23 13:21:09;;;;;;;45.00;18.80;;;;;;;-2.29;78.29;99323.08;102607;1317;71899;-70
2021/12/23 13:24:02;;;;;;;27.70;11.70;;;;;;;-2.30;78.28;99317.38;102697;1304;67456;-71
2021/12/23 13:26:52;;;;;;;37.50;17.10;;;;;;;-2.29;78.24;99317.16;102508;1310;73146;-72
2021/12/23 13:29:41;;;;;;;39.60;17.20;;;;;;;-2.28;78.49;99312.63;102422;1313;59777;-72
2021/12/23 13:32:33;;;;;;;34.30;16.00;;;;;;;-2.29;78.60;99304.15;102656;1314;59657;-72
2021/12/23 13:35:22;;;;;;;32.90;15.20;;;;;;;-2.35;78.55;99299.31;101851;1313;1003631;-72
2021/12/23 13:38:32;;;;;;;34.90;15.80;;;;;;;-2.40;78.59;99295.49;101660;1313;1003222;-72
2021/12/23 13:41:25;;;;;;;38.60;18.50;;;;;;;-2.48;79.32;99288.83;102485;1314;73280;-70
2021/12/23 13:44:25;;;;;;;36.60;17.40;;;;;;;-2.53;79.30;99285.92;102391;1310;60047;-70
2021/12/23 13:47:21;;;;;;;32.90;14.00;;;;;;;-2.56;79.24;99279.58;103018;1310;60574;-71
2021/12/23 13:50:20;;;;;;;28.20;13.90;;;;;;;-2.58;79.64;99271.31;102639;1316;73741;-71
2021/12/23 13:53:17;;;;;;;34.30;14.90;;;;;;;-2.60;79.91;99268.62;103043;1314;68399;-72
2021/12/23 13:56:14;;;;;;;37.20;17.10;;;;;;;-2.62;80.02;99263.48;102819;1311;72929;-72
2021/12/23 13:59:15;;;;;;;37.10;16.30;;;;;;;-2.64;80.00;99259.20;102968;1313;59659;-71
2021/12/23 14:02:06;;;;;;;44.40;19.10;;;;;;;-2.65;80.27;99247.07;102160;1313;525340;-70
2021/12/23 14:05:02;;;;;;;31.50;14.10;;;;;;;-2.66;80.44;99242.60;102448;1314;71129;-71
2021/12/23 14:07:57;;;;;;;39.00;17.70;;;;;;;-2.74;80.49;99231.45;102730;1311;68551;-72
2021/12/23 14:10:49;;;;;;;37.50;17.40;;;;;;;-2.73;81.28;99236.59;102616;1311;72939;-72
2021/12/23 14:13:39;;;;;;;31.40;15.20;;;;;;;-2.73;81.60;99238.85;101387;1314;1004296;-71
2021/12/23 14:16:29;;;;;;;39.40;18.70;;;;;;;-2.75;81.60;99230.95;102465;1311;60847;-69
2021/12/23 14:19:25;;;;;;;36.90;18.50;;;;;;;-2.74;81.60;99226.23;102484;1313;73921;-71
2021/12/23 14:25:21;;;;;;;38.40;18.40;;;;;;;-2.77;81.36;99216.95;102188;1310;73352;-71
2021/12/23 14:28:12;;;;;;;44.20;18.30;;;;;;;-2.77;81.26;99210.70;102502;1311;59937;-71
2021/12/23 14:31:27;;;;;;;34.60;17.20;;;;;;;-2.77;81.15;99207.92;101971;1313;1002753;-72
2021/12/23 14:34:28;;;;;;;39.40;18.80;;;;;;;-2.77;81.05;99197.34;102880;1307;71285;-72
2021/12/23 14:37:42;;;;;;;39.50;16.20;;;;;;;-2.76;81.10;99192.08;102416;1314;68277;-71